sensor_id;sensor_type;location;lat;lon;timestamp;P1;durP1;ratioP1;P2;durP2;ratioP2
46731;SDS011;32477;51.474;5.696;2022-10-28T00:01:00;18.77;;;8.52;;
46731;SDS011;32477;51.474;5.696;2022-10-28T00:03:26;26.33;;;9.23;;
46731;SDS011;32477;51.474;5.696;2022-10-28T00:05:52;25.77;;;8.75;;
46731;SDS011;32477;51.474;5.696;2022-10-28T00:08:18;25.20;;;9.07;;
46731;SDS011;32477;51.474;5.696;2022-10-28T00:10:44;19.50;;;8.43;;
46731;SDS011;32477;51.474;5.696;2022-10-28T00:13:10;21.00;;;8.77;;
46731;SDS011;32477;51.474;5.696;2022-10-28T00:15:38;26.08;;;8.63;;
46731;SDS011;32477;51.474;5.696;2022-10-28T00:18:04;21.08;;;8.43;;
46731;SDS011;32477;51.474;5.696;2022-10-28T00:20:30;16.30;;;8.63;;
46731;SDS011;32477;51.474;5.696;2022-10-28T00:22:56;32.17;;;9.93;;
46731;SDS011;32477;51.474;5.696;2022-10-28T00:25:21;25.98;;;9.45;;
46731;SDS011;32477;51.474;5.696;2022-10-28T00:27:49;22.80;;;9.55;;
46731;SDS011;32477;51.474;5.696;2022-10-28T00:30:16;20.70;;;10.07;;
46731;SDS011;32477;51.474;5.696;2022-10-28T00:32:44;22.65;;;9.77;;
46731;SDS011;32477;51.474;5.696;2022-10-28T00:35:10;26.63;;;10.13;;
46731;SDS011;32477;51.474;5.696;2022-10-28T00:37:36;19.95;;;9.65;;
46731;SDS011;32477;51.474;5.696;2022-10-28T00:40:02;20.52;;;9.55;;
46731;SDS011;32477;51.474;5.696;2022-10-28T00:42:28;27.73;;;10.25;;
46731;SDS011;32477;51.474;5.696;2022-10-28T00:44:55;24.60;;;9.63;;
46731;SDS011;32477;51.474;5.696;2022-10-28T00:47:30;21.10;;;10.10;;
46731;SDS011;32477;51.474;5.696;2022-10-28T00:53:22;26.88;;;10.38;;
46731;SDS011;32477;51.474;5.696;2022-10-28T00:55:50;24.85;;;9.40;;
46731;SDS011;32477;51.474;5.696;2022-10-28T00:58:18;28.02;;;11.50;;
46731;SDS011;32477;51.474;5.696;2022-10-28T01:00:47;26.08;;;11.57;;
46731;SDS011;32477;51.474;5.696;2022-10-28T01:03:13;24.02;;;11.80;;
46731;SDS011;32477;51.474;5.696;2022-10-28T01:05:41;25.17;;;11.73;;
46731;SDS011;32477;51.474;5.696;2022-10-28T01:08:08;35.67;;;12.90;;
46731;SDS011;32477;51.474;5.696;2022-10-28T01:18:58;27.95;;;10.82;;
46731;SDS011;32477;51.474;5.696;2022-10-28T01:30:40;21.65;;;10.43;;
46731;SDS011;32477;51.474;5.696;2022-10-28T01:33:07;24.02;;;12.05;;
46731;SDS011;32477;51.474;5.696;2022-10-28T01:35:52;25.90;;;10.65;;
46731;SDS011;32477;51.474;5.696;2022-10-28T01:41:05;23.88;;;9.73;;
46731;SDS011;32477;51.474;5.696;2022-10-28T01:46:32;19.48;;;9.27;;
46731;SDS011;32477;51.474;5.696;2022-10-28T01:49:04;31.27;;;9.20;;
46731;SDS011;32477;51.474;5.696;2022-10-28T01:51:37;21.20;;;8.55;;
46731;SDS011;32477;51.474;5.696;2022-10-28T01:54:16;24.45;;;8.93;;
46731;SDS011;32477;51.474;5.696;2022-10-28T01:56:46;26.85;;;9.02;;
46731;SDS011;32477;51.474;5.696;2022-10-28T01:59:15;20.65;;;8.68;;
46731;SDS011;32477;51.474;5.696;2022-10-28T02:01:46;21.95;;;8.30;;
46731;SDS011;32477;51.474;5.696;2022-10-28T02:04:12;21.48;;;8.75;;
46731;SDS011;32477;51.474;5.696;2022-10-28T02:06:38;20.40;;;8.43;;
46731;SDS011;32477;51.474;5.696;2022-10-28T02:09:10;26.73;;;8.98;;
46731;SDS011;32477;51.474;5.696;2022-10-28T02:17:49;22.27;;;8.77;;
46731;SDS011;32477;51.474;5.696;2022-10-28T02:20:55;23.30;;;8.95;;
46731;SDS011;32477;51.474;5.696;2022-10-28T02:23:19;22.52;;;9.60;;
46731;SDS011;32477;51.474;5.696;2022-10-28T02:28:56;32.03;;;9.88;;
46731;SDS011;32477;51.474;5.696;2022-10-28T02:31:44;23.23;;;9.40;;
46731;SDS011;32477;51.474;5.696;2022-10-28T02:34:17;22.05;;;8.50;;
46731;SDS011;32477;51.474;5.696;2022-10-28T02:36:48;22.85;;;8.73;;
46731;SDS011;32477;51.474;5.696;2022-10-28T02:39:17;29.38;;;9.50;;
46731;SDS011;32477;51.474;5.696;2022-10-28T02:41:50;25.17;;;9.57;;
46731;SDS011;32477;51.474;5.696;2022-10-28T02:44:31;24.52;;;9.65;;
46731;SDS011;32477;51.474;5.696;2022-10-28T02:47:02;29.30;;;10.60;;
46731;SDS011;32477;51.474;5.696;2022-10-28T02:49:37;30.92;;;10.00;;
46731;SDS011;32477;51.474;5.696;2022-10-28T02:52:07;30.92;;;10.00;;
46731;SDS011;32477;51.474;5.696;2022-10-28T02:54:52;28.10;;;9.98;;
46731;SDS011;32477;51.474;5.696;2022-10-28T02:57:22;25.60;;;10.65;;
46731;SDS011;32477;51.474;5.696;2022-10-28T02:59:54;33.42;;;9.88;;
46731;SDS011;32477;51.474;5.696;2022-10-28T03:02:22;29.60;;;8.98;;
46731;SDS011;32477;51.474;5.696;2022-10-28T03:04:48;30.25;;;8.15;;
46731;SDS011;32477;51.474;5.696;2022-10-28T03:07:13;21.38;;;9.35;;
46731;SDS011;32477;51.474;5.696;2022-10-28T03:09:39;24.50;;;9.02;;
46731;SDS011;32477;51.474;5.696;2022-10-28T03:12:05;31.73;;;9.13;;
46731;SDS011;32477;51.474;5.696;2022-10-28T03:14:31;26.40;;;8.55;;
46731;SDS011;32477;51.474;5.696;2022-10-28T03:16:56;22.88;;;9.07;;
46731;SDS011;32477;51.474;5.696;2022-10-28T03:19:22;23.90;;;8.52;;
46731;SDS011;32477;51.474;5.696;2022-10-28T03:21:49;25.70;;;8.88;;
46731;SDS011;32477;51.474;5.696;2022-10-28T03:24:14;21.35;;;8.20;;
46731;SDS011;32477;51.474;5.696;2022-10-28T03:26:40;18.35;;;8.63;;
46731;SDS011;32477;51.474;5.696;2022-10-28T03:29:07;20.52;;;8.70;;
46731;SDS011;32477;51.474;5.696;2022-10-28T03:31:32;23.75;;;8.13;;
46731;SDS011;32477;51.474;5.696;2022-10-28T03:33:58;19.20;;;7.60;;
46731;SDS011;32477;51.474;5.696;2022-10-28T03:36:27;30.92;;;8.95;;
46731;SDS011;32477;51.474;5.696;2022-10-28T03:38:53;22.50;;;8.25;;
46731;SDS011;32477;51.474;5.696;2022-10-28T03:41:19;23.48;;;8.10;;
46731;SDS011;32477;51.474;5.696;2022-10-28T03:43:45;29.65;;;8.15;;
46731;SDS011;32477;51.474;5.696;2022-10-28T03:46:12;26.20;;;8.10;;
46731;SDS011;32477;51.474;5.696;2022-10-28T03:48:37;28.73;;;9.45;;
46731;SDS011;32477;51.474;5.696;2022-10-28T03:51:03;28.52;;;8.40;;
46731;SDS011;32477;51.474;5.696;2022-10-28T03:53:29;25.02;;;8.35;;
46731;SDS011;32477;51.474;5.696;2022-10-28T03:55:55;24.42;;;8.65;;
46731;SDS011;32477;51.474;5.696;2022-10-28T03:58:23;24.75;;;8.50;;
46731;SDS011;32477;51.474;5.696;2022-10-28T04:00:50;21.10;;;8.27;;
46731;SDS011;32477;51.474;5.696;2022-10-28T04:03:17;31.58;;;8.55;;
46731;SDS011;32477;51.474;5.696;2022-10-28T04:05:44;24.95;;;8.82;;
46731;SDS011;32477;51.474;5.696;2022-10-28T04:08:10;35.65;;;9.68;;
46731;SDS011;32477;51.474;5.696;2022-10-28T04:10:35;34.22;;;8.75;;
46731;SDS011;32477;51.474;5.696;2022-10-28T04:13:02;21.90;;;9.88;;
46731;SDS011;32477;51.474;5.696;2022-10-28T04:15:29;28.42;;;8.85;;
46731;SDS011;32477;51.474;5.696;2022-10-28T04:17:55;18.08;;;8.27;;
46731;SDS011;32477;51.474;5.696;2022-10-28T04:20:21;34.17;;;8.80;;
46731;SDS011;32477;51.474;5.696;2022-10-28T04:22:48;24.40;;;8.65;;
46731;SDS011;32477;51.474;5.696;2022-10-28T04:25:13;20.80;;;8.10;;
46731;SDS011;32477;51.474;5.696;2022-10-28T04:27:39;22.52;;;9.13;;
46731;SDS011;32477;51.474;5.696;2022-10-28T04:30:05;34.90;;;9.10;;
46731;SDS011;32477;51.474;5.696;2022-10-28T04:32:31;22.70;;;9.02;;
46731;SDS011;32477;51.474;5.696;2022-10-28T04:34:57;20.50;;;9.10;;
46731;SDS011;32477;51.474;5.696;2022-10-28T04:37:23;22.27;;;8.50;;
46731;SDS011;32477;51.474;5.696;2022-10-28T04:39:48;31.83;;;8.93;;
46731;SDS011;32477;51.474;5.696;2022-10-28T04:42:14;18.90;;;8.85;;
46731;SDS011;32477;51.474;5.696;2022-10-28T04:44:40;37.88;;;9.75;;
46731;SDS011;32477;51.474;5.696;2022-10-28T04:47:06;24.45;;;8.73;;
46731;SDS011;32477;51.474;5.696;2022-10-28T04:49:35;25.83;;;8.00;;
46731;SDS011;32477;51.474;5.696;2022-10-28T04:52:03;22.60;;;7.75;;
46731;SDS011;32477;51.474;5.696;2022-10-28T04:54:29;17.67;;;7.43;;
46731;SDS011;32477;51.474;5.696;2022-10-28T04:56:55;28.25;;;8.00;;
46731;SDS011;32477;51.474;5.696;2022-10-28T04:59:21;22.77;;;8.00;;
46731;SDS011;32477;51.474;5.696;2022-10-28T05:01:46;26.33;;;8.52;;
46731;SDS011;32477;51.474;5.696;2022-10-28T05:04:12;21.08;;;8.45;;
46731;SDS011;32477;51.474;5.696;2022-10-28T05:06:38;19.73;;;8.15;;
46731;SDS011;32477;51.474;5.696;2022-10-28T05:09:04;17.73;;;7.15;;
46731;SDS011;32477;51.474;5.696;2022-10-28T05:11:30;30.80;;;9.15;;
46731;SDS011;32477;51.474;5.696;2022-10-28T05:13:55;32.08;;;7.72;;
46731;SDS011;32477;51.474;5.696;2022-10-28T05:16:21;24.30;;;7.53;;
46731;SDS011;32477;51.474;5.696;2022-10-28T05:18:47;28.90;;;8.02;;
46731;SDS011;32477;51.474;5.696;2022-10-28T05:21:12;25.58;;;8.38;;
46731;SDS011;32477;51.474;5.696;2022-10-28T05:23:38;27.83;;;8.70;;
46731;SDS011;32477;51.474;5.696;2022-10-28T05:26:04;32.88;;;8.98;;
46731;SDS011;32477;51.474;5.696;2022-10-28T05:28:30;28.33;;;8.32;;
46731;SDS011;32477;51.474;5.696;2022-10-28T05:30:56;21.88;;;8.73;;
46731;SDS011;32477;51.474;5.696;2022-10-28T05:33:22;38.00;;;8.55;;
46731;SDS011;32477;51.474;5.696;2022-10-28T05:35:47;35.17;;;9.23;;
46731;SDS011;32477;51.474;5.696;2022-10-28T05:38:13;19.58;;;8.60;;
46731;SDS011;32477;51.474;5.696;2022-10-28T05:40:39;34.13;;;9.05;;
46731;SDS011;32477;51.474;5.696;2022-10-28T05:43:05;24.08;;;8.23;;
46731;SDS011;32477;51.474;5.696;2022-10-28T05:45:33;23.67;;;8.25;;
46731;SDS011;32477;51.474;5.696;2022-10-28T05:47:59;23.73;;;8.38;;
46731;SDS011;32477;51.474;5.696;2022-10-28T05:50:24;25.52;;;8.50;;
46731;SDS011;32477;51.474;5.696;2022-10-28T05:52:52;22.85;;;8.10;;
46731;SDS011;32477;51.474;5.696;2022-10-28T05:55:19;23.75;;;7.72;;
46731;SDS011;32477;51.474;5.696;2022-10-28T05:57:47;27.50;;;8.60;;
46731;SDS011;32477;51.474;5.696;2022-10-28T06:00:14;19.60;;;7.82;;
46731;SDS011;32477;51.474;5.696;2022-10-28T06:02:41;28.80;;;7.85;;
46731;SDS011;32477;51.474;5.696;2022-10-28T06:05:07;22.08;;;8.07;;
46731;SDS011;32477;51.474;5.696;2022-10-28T06:07:34;17.90;;;7.90;;
46731;SDS011;32477;51.474;5.696;2022-10-28T06:10:00;19.02;;;9.27;;
46731;SDS011;32477;51.474;5.696;2022-10-28T06:12:26;21.08;;;8.25;;
46731;SDS011;32477;51.474;5.696;2022-10-28T06:14:52;26.27;;;8.63;;
46731;SDS011;32477;51.474;5.696;2022-10-28T06:17:18;24.00;;;8.57;;
46731;SDS011;32477;51.474;5.696;2022-10-28T06:19:44;17.90;;;9.82;;
46731;SDS011;32477;51.474;5.696;2022-10-28T06:22:10;27.33;;;9.75;;
46731;SDS011;32477;51.474;5.696;2022-10-28T06:24:36;22.48;;;7.90;;
46731;SDS011;32477;51.474;5.696;2022-10-28T06:27:02;22.40;;;8.73;;
46731;SDS011;32477;51.474;5.696;2022-10-28T06:29:28;22.45;;;8.60;;
46731;SDS011;32477;51.474;5.696;2022-10-28T06:31:56;30.95;;;8.60;;
46731;SDS011;32477;51.474;5.696;2022-10-28T06:34:22;23.33;;;9.20;;
46731;SDS011;32477;51.474;5.696;2022-10-28T06:36:48;28.30;;;8.50;;
46731;SDS011;32477;51.474;5.696;2022-10-28T06:39:13;29.45;;;9.52;;
46731;SDS011;32477;51.474;5.696;2022-10-28T06:41:39;20.05;;;8.38;;
46731;SDS011;32477;51.474;5.696;2022-10-28T06:44:05;32.10;;;8.38;;
46731;SDS011;32477;51.474;5.696;2022-10-28T06:46:31;23.85;;;7.70;;
46731;SDS011;32477;51.474;5.696;2022-10-28T06:48:56;27.98;;;8.73;;
46731;SDS011;32477;51.474;5.696;2022-10-28T06:51:22;26.10;;;10.65;;
46731;SDS011;32477;51.474;5.696;2022-10-28T06:53:51;28.20;;;8.68;;
46731;SDS011;32477;51.474;5.696;2022-10-28T06:56:17;17.95;;;8.80;;
46731;SDS011;32477;51.474;5.696;2022-10-28T06:58:43;23.77;;;8.27;;
46731;SDS011;32477;51.474;5.696;2022-10-28T07:01:14;17.45;;;8.45;;
46731;SDS011;32477;51.474;5.696;2022-10-28T07:03:40;36.03;;;10.70;;
46731;SDS011;32477;51.474;5.696;2022-10-28T07:06:06;21.52;;;8.15;;
46731;SDS011;32477;51.474;5.696;2022-10-28T07:08:32;17.00;;;8.00;;
46731;SDS011;32477;51.474;5.696;2022-10-28T07:10:58;21.25;;;7.53;;
46731;SDS011;32477;51.474;5.696;2022-10-28T07:13:27;31.30;;;7.57;;
46731;SDS011;32477;51.474;5.696;2022-10-28T07:15:54;24.88;;;7.60;;
46731;SDS011;32477;51.474;5.696;2022-10-28T07:18:22;37.83;;;10.13;;
46731;SDS011;32477;51.474;5.696;2022-10-28T07:20:49;22.95;;;7.95;;
46731;SDS011;32477;51.474;5.696;2022-10-28T07:23:15;23.73;;;7.63;;
46731;SDS011;32477;51.474;5.696;2022-10-28T07:25:41;25.35;;;8.10;;
46731;SDS011;32477;51.474;5.696;2022-10-28T07:28:07;34.67;;;8.10;;
46731;SDS011;32477;51.474;5.696;2022-10-28T07:30:33;26.35;;;8.32;;
46731;SDS011;32477;51.474;5.696;2022-10-28T07:32:59;49.35;;;8.82;;
46731;SDS011;32477;51.474;5.696;2022-10-28T07:35:29;28.50;;;7.65;;
46731;SDS011;32477;51.474;5.696;2022-10-28T07:37:55;20.38;;;7.30;;
46731;SDS011;32477;51.474;5.696;2022-10-28T07:40:22;30.17;;;7.95;;
46731;SDS011;32477;51.474;5.696;2022-10-28T07:42:48;24.15;;;7.82;;
46731;SDS011;32477;51.474;5.696;2022-10-28T07:45:15;22.70;;;8.23;;
46731;SDS011;32477;51.474;5.696;2022-10-28T07:47:42;22.80;;;7.85;;
46731;SDS011;32477;51.474;5.696;2022-10-28T07:50:08;26.23;;;8.30;;
46731;SDS011;32477;51.474;5.696;2022-10-28T07:52:34;18.48;;;7.15;;
46731;SDS011;32477;51.474;5.696;2022-10-28T07:55:00;24.58;;;7.05;;
46731;SDS011;32477;51.474;5.696;2022-10-28T07:57:27;23.20;;;7.90;;
46731;SDS011;32477;51.474;5.696;2022-10-28T07:59:53;26.08;;;7.07;;
46731;SDS011;32477;51.474;5.696;2022-10-28T08:02:21;26.90;;;6.90;;
46731;SDS011;32477;51.474;5.696;2022-10-28T08:04:48;18.90;;;7.10;;
46731;SDS011;32477;51.474;5.696;2022-10-28T08:07:15;19.70;;;7.10;;
46731;SDS011;32477;51.474;5.696;2022-10-28T08:09:44;27.35;;;7.00;;
46731;SDS011;32477;51.474;5.696;2022-10-28T08:12:14;29.52;;;6.50;;
46731;SDS011;32477;51.474;5.696;2022-10-28T08:14:43;15.15;;;6.25;;
46731;SDS011;32477;51.474;5.696;2022-10-28T08:17:09;26.65;;;6.57;;
46731;SDS011;32477;51.474;5.696;2022-10-28T08:19:35;19.70;;;6.45;;
46731;SDS011;32477;51.474;5.696;2022-10-28T08:22:01;26.20;;;7.00;;
46731;SDS011;32477;51.474;5.696;2022-10-28T08:24:27;25.90;;;6.28;;
46731;SDS011;32477;51.474;5.696;2022-10-28T08:26:53;23.13;;;6.53;;
46731;SDS011;32477;51.474;5.696;2022-10-28T08:29:18;28.95;;;6.68;;
46731;SDS011;32477;51.474;5.696;2022-10-28T08:31:44;26.02;;;6.57;;
46731;SDS011;32477;51.474;5.696;2022-10-28T08:34:12;24.30;;;7.10;;
46731;SDS011;32477;51.474;5.696;2022-10-28T08:36:46;15.90;;;5.68;;
46731;SDS011;32477;51.474;5.696;2022-10-28T08:39:11;22.92;;;6.13;;
46731;SDS011;32477;51.474;5.696;2022-10-28T08:41:38;18.73;;;6.10;;
46731;SDS011;32477;51.474;5.696;2022-10-28T08:44:16;24.40;;;6.30;;
46731;SDS011;32477;51.474;5.696;2022-10-28T08:47:01;21.38;;;7.22;;
46731;SDS011;32477;51.474;5.696;2022-10-28T08:50:08;22.55;;;5.93;;
46731;SDS011;32477;51.474;5.696;2022-10-28T08:55:18;27.58;;;5.90;;
46731;SDS011;32477;51.474;5.696;2022-10-28T08:58:11;31.88;;;6.57;;
46731;SDS011;32477;51.474;5.696;2022-10-28T09:00:50;20.13;;;5.85;;
46731;SDS011;32477;51.474;5.696;2022-10-28T09:03:23;26.25;;;7.10;;
46731;SDS011;32477;51.474;5.696;2022-10-28T09:06:06;21.35;;;6.45;;
46731;SDS011;32477;51.474;5.696;2022-10-28T09:08:38;20.65;;;5.68;;
46731;SDS011;32477;51.474;5.696;2022-10-28T09:13:57;26.98;;;6.75;;
46731;SDS011;32477;51.474;5.696;2022-10-28T09:19:15;20.48;;;6.10;;
46731;SDS011;32477;51.474;5.696;2022-10-28T09:22:01;21.83;;;6.25;;
46731;SDS011;32477;51.474;5.696;2022-10-28T09:24:42;18.52;;;6.53;;
46731;SDS011;32477;51.474;5.696;2022-10-28T09:33:12;23.60;;;8.13;;
46731;SDS011;32477;51.474;5.696;2022-10-28T09:35:55;33.20;;;7.38;;
46731;SDS011;32477;51.474;5.696;2022-10-28T09:38:26;22.70;;;6.47;;
46731;SDS011;32477;51.474;5.696;2022-10-28T09:41:04;25.48;;;6.47;;
46731;SDS011;32477;51.474;5.696;2022-10-28T09:43:41;25.02;;;5.78;;
46731;SDS011;32477;51.474;5.696;2022-10-28T09:46:16;21.63;;;5.55;;
46731;SDS011;32477;51.474;5.696;2022-10-28T09:53:49;31.05;;;6.28;;
46731;SDS011;32477;51.474;5.696;2022-10-28T09:56:18;23.27;;;5.90;;
46731;SDS011;32477;51.474;5.696;2022-10-28T09:58:44;31.25;;;6.07;;
46731;SDS011;32477;51.474;5.696;2022-10-28T10:01:11;25.42;;;6.22;;
46731;SDS011;32477;51.474;5.696;2022-10-28T10:03:38;20.60;;;5.95;;
46731;SDS011;32477;51.474;5.696;2022-10-28T10:06:12;20.30;;;5.63;;
46731;SDS011;32477;51.474;5.696;2022-10-28T10:08:51;18.77;;;5.43;;
46731;SDS011;32477;51.474;5.696;2022-10-28T10:14:06;27.02;;;5.93;;
46731;SDS011;32477;51.474;5.696;2022-10-28T10:19:10;17.48;;;5.43;;
46731;SDS011;32477;51.474;5.696;2022-10-28T10:21:46;23.98;;;4.93;;
46731;SDS011;32477;51.474;5.696;2022-10-28T10:24:29;29.65;;;6.15;;
46731;SDS011;32477;51.474;5.696;2022-10-28T10:27:01;28.07;;;5.40;;
46731;SDS011;32477;51.474;5.696;2022-10-28T10:29:33;16.77;;;5.07;;
46731;SDS011;32477;51.474;5.696;2022-10-28T10:32:03;17.73;;;4.85;;
46731;SDS011;32477;51.474;5.696;2022-10-28T10:34:58;19.70;;;4.20;;
46731;SDS011;32477;51.474;5.696;2022-10-28T10:37:27;15.80;;;4.70;;
46731;SDS011;32477;51.474;5.696;2022-10-28T10:39:58;21.75;;;4.15;;
46731;SDS011;32477;51.474;5.696;2022-10-28T10:42:43;17.98;;;5.53;;
46731;SDS011;32477;51.474;5.696;2022-10-28T10:47:43;19.10;;;4.03;;
46731;SDS011;32477;51.474;5.696;2022-10-28T10:50:16;15.40;;;4.70;;
46731;SDS011;32477;51.474;5.696;2022-10-28T10:52:54;18.45;;;4.43;;
46731;SDS011;32477;51.474;5.696;2022-10-28T10:55:35;22.40;;;4.60;;
46731;SDS011;32477;51.474;5.696;2022-10-28T10:58:04;21.25;;;4.88;;
46731;SDS011;32477;51.474;5.696;2022-10-28T11:00:33;22.42;;;4.78;;
46731;SDS011;32477;51.474;5.696;2022-10-28T11:03:02;19.17;;;4.35;;
46731;SDS011;32477;51.474;5.696;2022-10-28T11:05:30;18.90;;;4.05;;
46731;SDS011;32477;51.474;5.696;2022-10-28T11:07:56;14.18;;;4.00;;
46731;SDS011;32477;51.474;5.696;2022-10-28T11:10:29;17.33;;;5.03;;
46731;SDS011;32477;51.474;5.696;2022-10-28T11:13:22;18.83;;;4.68;;
46731;SDS011;32477;51.474;5.696;2022-10-28T11:15:58;20.25;;;3.80;;
46731;SDS011;32477;51.474;5.696;2022-10-28T11:18:24;16.30;;;4.28;;
46731;SDS011;32477;51.474;5.696;2022-10-28T11:26:12;17.58;;;4.47;;
46731;SDS011;32477;51.474;5.696;2022-10-28T11:28:46;19.92;;;4.85;;
46731;SDS011;32477;51.474;5.696;2022-10-28T11:39:50;19.25;;;4.88;;
46731;SDS011;32477;51.474;5.696;2022-10-28T11:42:46;18.55;;;4.05;;
46731;SDS011;32477;51.474;5.696;2022-10-28T11:45:25;22.60;;;4.72;;
46731;SDS011;32477;51.474;5.696;2022-10-28T11:48:20;21.33;;;4.07;;
46731;SDS011;32477;51.474;5.696;2022-10-28T11:56:59;14.82;;;4.03;;
46731;SDS011;32477;51.474;5.696;2022-10-28T12:05:37;20.85;;;4.32;;
46731;SDS011;32477;51.474;5.696;2022-10-28T12:14:24;24.75;;;5.22;;
46731;SDS011;32477;51.474;5.696;2022-10-28T12:19:58;18.55;;;4.78;;
46731;SDS011;32477;51.474;5.696;2022-10-28T12:22:31;28.25;;;4.32;;
46731;SDS011;32477;51.474;5.696;2022-10-28T12:25:06;18.77;;;4.40;;
46731;SDS011;32477;51.474;5.696;2022-10-28T12:27:39;20.15;;;4.72;;
46731;SDS011;32477;51.474;5.696;2022-10-28T12:30:14;14.75;;;4.15;;
46731;SDS011;32477;51.474;5.696;2022-10-28T12:32:44;20.92;;;4.32;;
46731;SDS011;32477;51.474;5.696;2022-10-28T12:35:15;15.15;;;3.80;;
46731;SDS011;32477;51.474;5.696;2022-10-28T12:40:20;20.83;;;4.25;;
46731;SDS011;32477;51.474;5.696;2022-10-28T12:45:43;22.80;;;4.03;;
46731;SDS011;32477;51.474;5.696;2022-10-28T12:50:50;33.15;;;5.43;;
46731;SDS011;32477;51.474;5.696;2022-10-28T12:56:00;27.95;;;4.10;;
46731;SDS011;32477;51.474;5.696;2022-10-28T13:01:14;20.48;;;4.35;;
46731;SDS011;32477;51.474;5.696;2022-10-28T13:03:43;18.83;;;4.07;;
46731;SDS011;32477;51.474;5.696;2022-10-28T13:17:40;22.67;;;4.65;;
46731;SDS011;32477;51.474;5.696;2022-10-28T13:26:12;22.45;;;4.30;;
46731;SDS011;32477;51.474;5.696;2022-10-28T13:28:49;23.58;;;3.83;;
46731;SDS011;32477;51.474;5.696;2022-10-28T13:31:21;26.52;;;5.15;;
46731;SDS011;32477;51.474;5.696;2022-10-28T13:33:56;28.85;;;4.57;;
46731;SDS011;32477;51.474;5.696;2022-10-28T13:36:25;19.00;;;4.40;;
46731;SDS011;32477;51.474;5.696;2022-10-28T13:38:52;27.60;;;4.88;;
46731;SDS011;32477;51.474;5.696;2022-10-28T13:41:34;22.40;;;4.60;;
46731;SDS011;32477;51.474;5.696;2022-10-28T13:49:27;20.73;;;4.47;;
46731;SDS011;32477;51.474;5.696;2022-10-28T13:52:16;24.50;;;4.63;;
46731;SDS011;32477;51.474;5.696;2022-10-28T13:59:59;16.30;;;5.03;;
46731;SDS011;32477;51.474;5.696;2022-10-28T14:05:01;16.92;;;4.75;;
46731;SDS011;32477;51.474;5.696;2022-10-28T14:07:30;15.80;;;4.53;;
46731;SDS011;32477;51.474;5.696;2022-10-28T14:10:10;19.83;;;4.15;;
46731;SDS011;32477;51.474;5.696;2022-10-28T14:12:46;15.65;;;4.55;;
46731;SDS011;32477;51.474;5.696;2022-10-28T14:15:22;23.17;;;4.45;;
46731;SDS011;32477;51.474;5.696;2022-10-28T14:20:39;24.35;;;4.50;;
46731;SDS011;32477;51.474;5.696;2022-10-28T14:44:19;18.87;;;3.93;;
46731;SDS011;32477;51.474;5.696;2022-10-28T14:49:25;23.02;;;3.78;;
46731;SDS011;32477;51.474;5.696;2022-10-28T14:51:54;14.27;;;4.20;;
46731;SDS011;32477;51.474;5.696;2022-10-28T14:54:27;14.73;;;5.00;;
46731;SDS011;32477;51.474;5.696;2022-10-28T14:57:01;18.95;;;4.90;;
46731;SDS011;32477;51.474;5.696;2022-10-28T14:59:30;29.05;;;5.13;;
46731;SDS011;32477;51.474;5.696;2022-10-28T15:04:36;25.52;;;4.55;;
46731;SDS011;32477;51.474;5.696;2022-10-28T15:07:14;16.90;;;5.32;;
46731;SDS011;32477;51.474;5.696;2022-10-28T15:09:42;14.15;;;4.00;;
46731;SDS011;32477;51.474;5.696;2022-10-28T15:12:10;21.92;;;4.80;;
46731;SDS011;32477;51.474;5.696;2022-10-28T15:14:44;27.52;;;5.63;;
46731;SDS011;32477;51.474;5.696;2022-10-28T15:19:40;19.20;;;4.90;;
46731;SDS011;32477;51.474;5.696;2022-10-28T15:22:13;15.85;;;3.95;;
46731;SDS011;32477;51.474;5.696;2022-10-28T15:24:51;31.23;;;4.30;;
46731;SDS011;32477;51.474;5.696;2022-10-28T15:27:26;18.92;;;3.78;;
46731;SDS011;32477;51.474;5.696;2022-10-28T15:29:54;17.55;;;3.47;;
46731;SDS011;32477;51.474;5.696;2022-10-28T15:34:46;19.85;;;4.68;;
46731;SDS011;32477;51.474;5.696;2022-10-28T15:37:14;21.20;;;4.40;;
46731;SDS011;32477;51.474;5.696;2022-10-28T15:39:42;17.98;;;4.32;;
46731;SDS011;32477;51.474;5.696;2022-10-28T15:44:54;21.33;;;4.50;;
46731;SDS011;32477;51.474;5.696;2022-10-28T15:52:44;15.70;;;4.38;;
46731;SDS011;32477;51.474;5.696;2022-10-28T16:02:59;20.50;;;4.43;;
46731;SDS011;32477;51.474;5.696;2022-10-28T16:10:42;21.63;;;4.38;;
46731;SDS011;32477;51.474;5.696;2022-10-28T16:13:44;18.75;;;4.63;;
46731;SDS011;32477;51.474;5.696;2022-10-28T16:19:23;24.67;;;5.55;;
46731;SDS011;32477;51.474;5.696;2022-10-28T16:21:40;25.42;;;5.70;;
46731;SDS011;32477;51.474;5.696;2022-10-28T16:24:08;18.15;;;5.18;;
46731;SDS011;32477;51.474;5.696;2022-10-28T16:26:34;20.27;;;5.40;;
46731;SDS011;32477;51.474;5.696;2022-10-28T16:29:00;22.42;;;5.78;;
46731;SDS011;32477;51.474;5.696;2022-10-28T16:31:26;17.40;;;5.32;;
46731;SDS011;32477;51.474;5.696;2022-10-28T16:33:53;18.75;;;5.45;;
46731;SDS011;32477;51.474;5.696;2022-10-28T16:36:19;26.73;;;8.15;;
46731;SDS011;32477;51.474;5.696;2022-10-28T16:38:45;20.45;;;5.78;;
46731;SDS011;32477;51.474;5.696;2022-10-28T16:41:15;17.98;;;5.93;;
46731;SDS011;32477;51.474;5.696;2022-10-28T16:43:42;19.33;;;5.03;;
46731;SDS011;32477;51.474;5.696;2022-10-28T16:46:08;18.48;;;5.72;;
46731;SDS011;32477;51.474;5.696;2022-10-28T16:48:36;20.08;;;6.25;;
46731;SDS011;32477;51.474;5.696;2022-10-28T16:51:02;26.23;;;6.10;;
46731;SDS011;32477;51.474;5.696;2022-10-28T16:53:39;23.00;;;5.22;;
46731;SDS011;32477;51.474;5.696;2022-10-28T16:56:10;19.33;;;5.32;;
46731;SDS011;32477;51.474;5.696;2022-10-28T16:58:39;27.95;;;7.22;;
46731;SDS011;32477;51.474;5.696;2022-10-28T17:01:06;22.60;;;6.35;;
46731;SDS011;32477;51.474;5.696;2022-10-28T17:03:33;17.85;;;6.15;;
46731;SDS011;32477;51.474;5.696;2022-10-28T17:05:59;25.80;;;6.80;;
46731;SDS011;32477;51.474;5.696;2022-10-28T17:08:25;22.75;;;7.55;;
46731;SDS011;32477;51.474;5.696;2022-10-28T17:10:50;23.35;;;6.45;;
46731;SDS011;32477;51.474;5.696;2022-10-28T17:13:16;34.35;;;6.43;;
46731;SDS011;32477;51.474;5.696;2022-10-28T17:15:42;21.85;;;6.10;;
46731;SDS011;32477;51.474;5.696;2022-10-28T17:18:10;23.85;;;6.82;;
46731;SDS011;32477;51.474;5.696;2022-10-28T17:20:37;26.15;;;6.82;;
46731;SDS011;32477;51.474;5.696;2022-10-28T17:23:03;23.33;;;7.22;;
46731;SDS011;32477;51.474;5.696;2022-10-28T17:25:29;27.38;;;6.57;;
46731;SDS011;32477;51.474;5.696;2022-10-28T17:27:55;30.30;;;7.18;;
46731;SDS011;32477;51.474;5.696;2022-10-28T17:30:21;20.02;;;7.13;;
46731;SDS011;32477;51.474;5.696;2022-10-28T17:32:50;26.10;;;6.75;;
46731;SDS011;32477;51.474;5.696;2022-10-28T17:35:17;24.77;;;8.90;;
46731;SDS011;32477;51.474;5.696;2022-10-28T17:37:44;24.40;;;7.15;;
46731;SDS011;32477;51.474;5.696;2022-10-28T17:40:10;20.63;;;6.82;;
46731;SDS011;32477;51.474;5.696;2022-10-28T17:42:36;22.05;;;6.75;;
46731;SDS011;32477;51.474;5.696;2022-10-28T17:45:02;24.95;;;7.65;;
46731;SDS011;32477;51.474;5.696;2022-10-28T17:47:30;23.42;;;8.32;;
46731;SDS011;32477;51.474;5.696;2022-10-28T17:49:57;27.08;;;8.80;;
46731;SDS011;32477;51.474;5.696;2022-10-28T17:52:24;29.65;;;8.40;;
46731;SDS011;32477;51.474;5.696;2022-10-28T17:54:52;26.05;;;8.63;;
46731;SDS011;32477;51.474;5.696;2022-10-28T17:57:18;24.42;;;9.02;;
46731;SDS011;32477;51.474;5.696;2022-10-28T17:59:44;21.77;;;7.63;;
46731;SDS011;32477;51.474;5.696;2022-10-28T18:02:10;20.83;;;7.93;;
46731;SDS011;32477;51.474;5.696;2022-10-28T18:04:39;30.80;;;9.88;;
46731;SDS011;32477;51.474;5.696;2022-10-28T18:07:05;31.35;;;8.95;;